createdAt,value
2019-02-21T00:00:41.542Z,10.70
2019-02-21T00:01:47.610Z,10.70
2019-02-21T00:02:52.088Z,10.70
2019-02-21T00:03:56.562Z,10.70
2019-02-21T00:05:01.127Z,10.60
2019-02-21T00:06:06.435Z,10.60
2019-02-21T00:07:11.060Z,10.70
2019-02-21T00:08:15.540Z,10.60
2019-02-21T00:09:20.011Z,10.60
2019-02-21T00:10:24.497Z,10.60
2019-02-21T00:11:40.956Z,10.60
2019-02-21T00:12:45.433Z,10.60
2019-02-21T00:13:50.252Z,10.60
2019-02-21T00:14:54.994Z,10.60
2019-02-21T00:15:59.543Z,10.60
2019-02-21T00:17:04.029Z,10.60
2019-02-21T00:18:08.545Z,10.70
2019-02-21T00:19:13.079Z,10.60
2019-02-21T00:20:17.571Z,10.70
2019-02-21T00:21:22.041Z,10.70
2019-02-21T00:22:26.501Z,10.70
2019-02-21T00:23:31.008Z,10.70
2019-02-21T00:24:35.574Z,10.70
2019-02-21T00:25:40.095Z,10.70
2019-02-21T00:26:44.563Z,10.70
2019-02-21T00:27:49.048Z,10.60
2019-02-21T00:28:53.608Z,10.60
2019-02-21T00:29:58.102Z,10.60
2019-02-21T00:31:02.585Z,10.60
2019-02-21T00:32:07.526Z,10.60
2019-02-21T00:33:11.991Z,10.60
2019-02-21T00:34:16.506Z,10.60
2019-02-21T00:35:20.999Z,10.60
2019-02-21T00:36:25.504Z,10.60
2019-02-21T00:37:30.021Z,10.60
2019-02-21T00:38:34.541Z,10.60
2019-02-21T00:39:39.024Z,10.60
2019-02-21T00:40:43.528Z,10.60
2019-02-21T00:41:47.998Z,10.60
2019-02-21T00:42:52.480Z,10.50
2019-02-21T00:43:57.130Z,10.60
2019-02-21T00:45:01.629Z,10.50
2019-02-21T00:46:06.085Z,10.60
2019-02-21T00:47:10.580Z,10.50
2019-02-21T00:48:15.058Z,10.50
2019-02-21T00:49:19.530Z,10.50
2019-02-21T00:50:24.035Z,10.50
2019-02-21T00:51:28.532Z,10.50
2019-02-21T00:52:32.995Z,10.50
2019-02-21T00:53:37.472Z,10.50
2019-02-21T00:54:41.946Z,10.60
2019-02-21T00:55:46.429Z,10.60
2019-02-21T00:56:50.919Z,10.60
2019-02-21T00:57:55.369Z,10.60
2019-02-21T00:58:59.840Z,10.60
2019-02-21T01:00:06.514Z,10.60
2019-02-21T01:01:11.074Z,10.60
2019-02-21T01:02:15.571Z,10.60
2019-02-21T01:03:20.138Z,10.60
2019-02-21T01:04:24.856Z,10.60
2019-02-21T01:05:29.345Z,10.60
2019-02-21T01:06:33.789Z,10.60
2019-02-21T01:07:38.290Z,10.60
2019-02-21T01:08:42.763Z,10.60
2019-02-21T01:09:47.221Z,10.60
2019-02-21T01:10:51.768Z,10.60
2019-02-21T01:11:56.331Z,10.60
2019-02-21T01:13:01.065Z,10.60
2019-02-21T01:14:05.545Z,10.60
2019-02-21T01:15:10.588Z,10.60
2019-02-21T01:16:15.057Z,10.60
2019-02-21T01:17:19.711Z,10.60
2019-02-21T01:18:24.199Z,10.60
2019-02-21T01:19:28.650Z,10.60
2019-02-21T01:20:33.109Z,10.60
2019-02-21T01:21:37.587Z,10.60
2019-02-21T01:22:42.051Z,10.60
2019-02-21T01:23:46.550Z,10.60
2019-02-21T01:24:51.005Z,10.60
2019-02-21T01:25:56.330Z,10.50
2019-02-21T01:27:00.810Z,10.50
2019-02-21T01:28:05.349Z,10.50
2019-02-21T01:29:09.837Z,10.50
2019-02-21T01:30:14.369Z,10.50
2019-02-21T01:31:19.110Z,10.60
2019-02-21T01:32:23.715Z,10.60
2019-02-21T01:33:28.315Z,10.60
2019-02-21T01:34:33.024Z,10.60
2019-02-21T01:35:37.482Z,10.60
2019-02-21T01:36:42.205Z,10.60
2019-02-21T01:37:46.667Z,10.60
2019-02-21T01:38:51.121Z,10.60
2019-02-21T01:39:55.635Z,10.60
2019-02-21T01:41:00.139Z,10.70
2019-02-21T01:42:04.666Z,10.70
2019-02-21T01:43:09.153Z,10.70
2019-02-21T01:44:13.632Z,10.70
2019-02-21T01:45:18.116Z,10.70
2019-02-21T01:46:22.608Z,10.70
2019-02-21T01:47:27.491Z,10.70
2019-02-21T01:48:31.981Z,10.70
2019-02-21T01:49:36.627Z,10.70
2019-02-21T01:50:41.115Z,10.70
2019-02-21T01:51:45.619Z,10.60
2019-02-21T01:52:50.094Z,10.60
2019-02-21T01:53:55.648Z,10.60
2019-02-21T01:55:00.320Z,10.60
2019-02-21T01:56:04.953Z,10.60
2019-02-21T01:57:09.813Z,10.60
2019-02-21T01:58:14.265Z,10.60
2019-02-21T01:59:18.751Z,10.60
2019-02-21T02:00:23.277Z,10.60
2019-02-21T02:01:27.771Z,10.60
2019-02-21T02:02:32.377Z,10.50
2019-02-21T02:03:36.839Z,10.50
2019-02-21T02:04:41.382Z,10.50
2019-02-21T02:05:46.077Z,10.50
2019-02-21T02:06:50.554Z,10.50
2019-02-21T02:07:55.044Z,10.50
2019-02-21T02:08:59.498Z,10.40
2019-02-21T02:10:05.026Z,10.40
2019-02-21T02:11:09.594Z,10.40
2019-02-21T02:12:14.066Z,10.40
2019-02-21T02:13:24.568Z,10.40
2019-02-21T02:14:24.740Z,10.40
2019-02-21T02:15:29.251Z,10.30
2019-02-21T02:16:33.756Z,10.30
2019-02-21T02:17:38.289Z,10.30
2019-02-21T02:18:42.764Z,10.30
2019-02-21T02:19:47.292Z,10.30
2019-02-21T02:20:51.781Z,10.20
2019-02-21T02:21:56.268Z,10.20
2019-02-21T02:23:00.799Z,10.20
2019-02-21T02:24:05.362Z,10.20
2019-02-21T02:25:09.896Z,10.20
2019-02-21T02:26:14.829Z,10.20
2019-02-21T02:27:19.300Z,10.10
2019-02-21T02:28:23.759Z,10.10
2019-02-21T02:29:28.312Z,10.10
2019-02-21T02:30:32.799Z,10.10
2019-02-21T02:31:37.305Z,10.10
2019-02-21T02:32:41.761Z,10.10
2019-02-21T02:33:46.247Z,10.10
2019-02-21T02:34:50.734Z,10.10
2019-02-21T02:35:55.213Z,10.10
2019-02-21T02:36:59.705Z,10.10
2019-02-21T02:38:04.372Z,10.10
2019-02-21T02:39:09.019Z,10.10
2019-02-21T02:40:13.563Z,10.10
2019-02-21T02:41:18.089Z,10.10
2019-02-21T02:42:22.560Z,10.10
2019-02-21T02:43:27.370Z,10.10
2019-02-21T02:44:31.865Z,10.10
2019-02-21T02:45:36.846Z,10.10
2019-02-21T02:46:41.463Z,10.10
2019-02-21T02:47:45.957Z,10.10
2019-02-21T02:48:50.423Z,10.10
2019-02-21T02:49:54.913Z,10.10
2019-02-21T02:50:59.404Z,10.10
2019-02-21T02:52:04.193Z,10.10
2019-02-21T02:53:08.850Z,10.10
2019-02-21T02:54:13.408Z,10.10
2019-02-21T02:55:17.889Z,10.10
2019-02-21T02:56:22.355Z,10.10
2019-02-21T02:57:26.825Z,10.10
2019-02-21T02:58:31.307Z,10.10
2019-02-21T02:59:40.726Z,10.10
2019-02-21T03:00:41.968Z,10.10
2019-02-21T03:01:46.479Z,10.10
2019-02-21T03:02:51.014Z,10.10
2019-02-21T03:03:55.516Z,10.10
2019-02-21T03:05:00.360Z,10.10
2019-02-21T03:06:05.106Z,10.10
2019-02-21T03:07:09.591Z,10.00
2019-02-21T03:08:14.118Z,10.00
2019-02-21T03:09:18.618Z,10.00
2019-02-21T03:10:23.198Z,10.00
2019-02-21T03:11:27.881Z,10.00
2019-02-21T03:12:32.352Z,10.00
2019-02-21T03:13:36.865Z,10.00
2019-02-21T03:14:41.358Z,10.00
2019-02-21T03:15:46.012Z,10.00
2019-02-21T03:16:50.498Z,10.00
2019-02-21T03:17:54.966Z,10.00
2019-02-21T03:18:59.450Z,10.00
2019-02-21T03:20:04.889Z,10.00
2019-02-21T03:21:09.391Z,9.90
2019-02-21T03:22:13.921Z,9.90
2019-02-21T03:23:18.462Z,9.90
2019-02-21T03:24:22.950Z,9.90
2019-02-21T03:25:27.419Z,9.90
2019-02-21T03:26:31.906Z,9.90
2019-02-21T03:27:36.391Z,9.90
2019-02-21T03:28:40.929Z,9.90
2019-02-21T03:29:45.439Z,9.90
2019-02-21T03:30:49.943Z,9.90
2019-02-21T03:31:56.078Z,9.90
2019-02-21T03:33:00.668Z,9.90
2019-02-21T03:34:05.147Z,9.90
2019-02-21T03:35:09.786Z,9.90
2019-02-21T03:36:14.321Z,9.90
2019-02-21T03:37:18.796Z,9.90
2019-02-21T03:38:23.278Z,9.90
2019-02-21T03:39:27.739Z,9.90
2019-02-21T03:40:32.282Z,9.90
2019-02-21T03:41:36.886Z,9.90
2019-02-21T03:42:41.389Z,9.90
2019-02-21T03:43:45.911Z,9.90
2019-02-21T03:44:50.375Z,9.90
2019-02-21T03:45:54.866Z,9.90
2019-02-21T03:46:59.313Z,9.90
2019-02-21T03:48:03.806Z,9.90
2019-02-21T03:49:08.263Z,9.90
2019-02-21T03:50:12.995Z,9.90
2019-02-21T03:51:17.501Z,9.90
2019-02-21T03:52:22.070Z,9.90
2019-02-21T03:53:26.552Z,9.90
2019-02-21T03:54:31.114Z,9.90
2019-02-21T03:55:35.583Z,9.90
2019-02-21T03:56:40.089Z,9.90
2019-02-21T03:57:44.565Z,9.90
2019-02-21T03:58:49.115Z,9.90
2019-02-21T03:59:53.647Z,9.90
2019-02-21T04:00:58.196Z,9.90
2019-02-21T04:02:05.603Z,9.90
2019-02-21T04:03:09.139Z,9.90
2019-02-21T04:04:13.729Z,9.90
2019-02-21T04:05:18.336Z,9.90
2019-02-21T04:06:23.065Z,9.90
2019-02-21T04:07:27.628Z,9.90
2019-02-21T04:08:32.085Z,9.90
2019-02-21T04:09:36.544Z,9.90
2019-02-21T04:10:41.012Z,9.90
2019-02-21T04:11:45.479Z,9.90
2019-02-21T04:12:50.172Z,9.90
2019-02-21T04:13:54.671Z,9.90
2019-02-21T04:14:59.161Z,9.90
2019-02-21T04:16:04.084Z,9.90
2019-02-21T04:17:08.550Z,9.90
2019-02-21T04:18:13.052Z,9.90
2019-02-21T04:19:17.502Z,9.90
2019-02-21T04:20:21.974Z,9.90
2019-02-21T04:21:26.425Z,9.80
2019-02-21T04:22:30.927Z,9.80
2019-02-21T04:23:35.403Z,9.80
2019-02-21T04:24:39.850Z,9.80
2019-02-21T04:25:44.331Z,9.80
2019-02-21T04:26:48.795Z,9.80
2019-02-21T04:27:53.357Z,9.80
2019-02-21T04:28:57.834Z,9.80
2019-02-21T04:30:02.377Z,9.70
2019-02-21T04:31:06.842Z,9.70
2019-02-21T04:32:17.121Z,9.70
2019-02-21T04:33:17.485Z,9.70
2019-02-21T04:34:22.067Z,9.70
2019-02-21T04:35:26.688Z,9.70
2019-02-21T04:36:31.143Z,9.70
2019-02-21T04:37:38.409Z,9.70
2019-02-21T04:38:42.960Z,9.70
2019-02-21T04:39:47.493Z,9.70
2019-02-21T04:40:51.946Z,9.70
2019-02-21T04:41:56.408Z,9.70
2019-02-21T04:43:01.140Z,9.70
2019-02-21T04:44:05.604Z,9.70
2019-02-21T04:45:10.200Z,9.70
2019-02-21T04:46:14.721Z,9.70
2019-02-21T04:47:19.263Z,9.70
2019-02-21T04:48:23.751Z,9.70
2019-02-21T04:49:28.238Z,9.70
2019-02-21T04:50:32.777Z,9.70
2019-02-21T04:51:37.255Z,9.60
2019-02-21T04:52:41.736Z,9.60
2019-02-21T04:53:46.215Z,9.60
2019-02-21T04:54:51.313Z,9.60
2019-02-21T04:55:55.783Z,9.60
2019-02-21T04:57:00.576Z,9.60
2019-02-21T04:58:05.080Z,9.60
2019-02-21T04:59:09.608Z,9.60
2019-02-21T05:00:14.075Z,9.60
2019-02-21T05:01:18.562Z,9.50
2019-02-21T05:02:29.111Z,9.50
2019-02-21T05:03:29.195Z,9.50
2019-02-21T05:04:33.664Z,9.50
2019-02-21T05:05:38.134Z,9.50
2019-02-21T05:06:42.602Z,9.50
2019-02-21T05:07:47.082Z,9.50
2019-02-21T05:08:51.992Z,9.50
2019-02-21T05:09:58.292Z,9.50
2019-02-21T05:11:02.605Z,9.50
2019-02-21T05:12:07.181Z,9.50
2019-02-21T05:13:11.669Z,9.50
2019-02-21T05:14:16.588Z,9.50
2019-02-21T05:15:21.037Z,9.50
2019-02-21T05:16:25.648Z,9.50
2019-02-21T05:17:30.123Z,9.50
2019-02-21T05:18:34.591Z,9.50
2019-02-21T05:19:39.065Z,9.50
2019-02-21T05:20:43.534Z,9.50
2019-02-21T05:21:48.018Z,9.50
2019-02-21T05:22:52.507Z,9.40
2019-02-21T05:23:56.983Z,9.40
2019-02-21T05:25:01.462Z,9.40
2019-02-21T05:26:06.735Z,9.40
2019-02-21T05:27:12.884Z,9.40
2019-02-21T05:28:25.090Z,9.40
2019-02-21T05:29:30.654Z,9.30
2019-02-21T05:30:36.385Z,9.30
2019-02-21T05:31:51.154Z,9.30
2019-02-21T05:32:57.256Z,9.30
2019-02-21T05:34:09.133Z,9.30
2019-02-21T05:35:18.009Z,9.20
2019-02-21T05:36:33.018Z,9.20
2019-02-21T05:37:42.251Z,9.20
2019-02-21T05:38:57.530Z,9.20
2019-02-21T05:40:12.688Z,9.10
2019-02-21T05:41:35.312Z,9.10
2019-02-21T05:42:57.760Z,9.10
2019-02-21T05:44:03.915Z,9.10
2019-02-21T05:45:22.304Z,9.00
2019-02-21T05:46:28.406Z,9.00
2019-02-21T05:47:37.519Z,9.00
2019-02-21T05:48:58.817Z,8.90
2019-02-21T05:50:17.567Z,8.90
2019-02-21T05:51:23.666Z,8.90
2019-02-21T05:52:29.860Z,8.80
2019-02-21T05:53:38.764Z,8.80
2019-02-21T05:54:57.078Z,8.80
2019-02-21T05:56:03.174Z,8.80
2019-02-21T05:57:09.319Z,8.80
2019-02-21T05:58:15.524Z,8.80
2019-02-21T05:59:37.947Z,8.70
2019-02-21T06:00:44.088Z,8.70
2019-02-21T06:01:59.665Z,8.70
2019-02-21T06:03:09.110Z,8.70
2019-02-21T06:04:15.583Z,8.70
2019-02-21T06:05:36.415Z,8.70
2019-02-21T06:06:51.522Z,8.70
2019-02-21T06:08:00.174Z,8.70
2019-02-21T06:09:25.164Z,8.70
2019-02-21T06:10:36.974Z,8.70
2019-02-21T06:11:55.341Z,8.60
2019-02-21T06:13:01.525Z,8.60
2019-02-21T06:14:23.902Z,8.60
2019-02-21T06:15:46.405Z,8.60
2019-02-21T06:17:04.727Z,8.60
2019-02-21T06:18:19.775Z,8.60
2019-02-21T06:19:44.051Z,8.60
2019-02-21T06:20:50.205Z,8.50
2019-02-21T06:22:10.990Z,8.50
2019-02-21T06:23:25.922Z,8.50
2019-02-21T06:24:47.311Z,8.60
2019-02-21T06:26:08.615Z,8.50
2019-02-21T06:27:14.730Z,8.50
2019-02-21T06:28:26.624Z,8.50
2019-02-21T06:29:35.433Z,8.50
2019-02-21T06:30:43.358Z,8.50
2019-02-21T06:31:47.941Z,8.50
2019-02-21T06:32:52.401Z,8.60
2019-02-21T06:33:57.057Z,8.50
2019-02-21T06:35:02.897Z,8.60
2019-02-21T06:36:07.692Z,8.60
2019-02-21T06:37:12.811Z,8.60
2019-02-21T06:38:17.440Z,8.70
2019-02-21T06:39:21.933Z,8.60
2019-02-21T06:40:26.419Z,8.70
2019-02-21T06:41:30.892Z,8.70
2019-02-21T06:42:35.507Z,8.70
2019-02-21T06:43:40.895Z,8.80
2019-02-21T06:44:45.431Z,8.80
2019-02-21T06:45:50.208Z,8.80
2019-02-21T06:46:54.690Z,8.90
2019-02-21T06:47:59.176Z,8.90
2019-02-21T06:49:04.011Z,8.90
2019-02-21T06:50:08.625Z,8.90
2019-02-21T06:51:13.180Z,9.00
2019-02-21T06:52:17.711Z,9.00
2019-02-21T06:53:22.194Z,9.00
2019-02-21T06:54:26.745Z,9.00
2019-02-21T06:55:31.212Z,9.00
2019-02-21T06:56:35.674Z,9.10
2019-02-21T06:57:40.157Z,9.10
2019-02-21T06:58:44.632Z,9.10
2019-02-21T06:59:49.195Z,9.10
2019-02-21T07:00:53.755Z,9.10
2019-02-21T07:01:58.248Z,9.20
2019-02-21T07:03:02.709Z,9.20
2019-02-21T07:04:07.249Z,9.20
2019-02-21T07:05:11.808Z,9.20
2019-02-21T07:06:16.306Z,9.20
2019-02-21T07:07:20.798Z,9.20
2019-02-21T07:08:25.307Z,9.30
2019-02-21T07:09:29.904Z,9.30
2019-02-21T07:10:34.361Z,9.30
2019-02-21T07:11:38.846Z,9.30
2019-02-21T07:12:43.395Z,9.40
2019-02-21T07:13:47.885Z,9.40
2019-02-21T07:14:52.742Z,9.40
2019-02-21T07:15:58.548Z,9.40
2019-02-21T07:17:03.707Z,9.40
2019-02-21T07:18:11.010Z,9.40
2019-02-21T07:19:14.515Z,9.40
2019-02-21T07:20:19.046Z,9.50
2019-02-21T07:21:23.512Z,9.50
2019-02-21T07:22:27.987Z,9.50
2019-02-21T07:23:42.819Z,9.50
2019-02-21T07:24:39.403Z,9.50
2019-02-21T07:25:45.625Z,9.60
2019-02-21T07:26:50.099Z,9.60
2019-02-21T07:27:54.568Z,9.60
2019-02-21T07:28:59.060Z,9.60
2019-02-21T07:30:04.014Z,9.70
2019-02-21T07:31:08.619Z,9.70
2019-02-21T07:32:13.118Z,9.70
2019-02-21T07:33:27.866Z,9.70
2019-02-21T07:34:23.801Z,9.70
2019-02-21T07:35:28.266Z,9.70
2019-02-21T07:36:32.781Z,9.70
2019-02-21T07:37:37.279Z,9.70
2019-02-21T07:38:41.759Z,9.80
2019-02-21T07:39:46.225Z,9.80
2019-02-21T07:40:50.746Z,9.80
2019-02-21T07:41:55.816Z,9.80
2019-02-21T07:43:01.298Z,9.80
2019-02-21T07:44:12.195Z,9.80
2019-02-21T07:45:12.543Z,9.90
2019-02-21T07:46:17.091Z,9.90
2019-02-21T07:47:21.568Z,9.90
2019-02-21T07:48:26.132Z,9.90
2019-02-21T07:49:30.630Z,9.90
2019-02-21T07:50:35.130Z,10.00
2019-02-21T07:51:41.371Z,10.00
2019-02-21T07:52:45.950Z,10.00
2019-02-21T07:53:50.451Z,10.00
2019-02-21T07:55:01.929Z,10.00
2019-02-21T07:56:01.277Z,10.00
2019-02-21T07:57:08.481Z,10.00
2019-02-21T07:58:12.359Z,10.10
2019-02-21T07:59:16.920Z,10.10
2019-02-21T08:00:21.485Z,10.10
2019-02-21T08:01:25.983Z,10.10
2019-02-21T08:02:30.640Z,10.10
2019-02-21T08:03:43.915Z,10.20
2019-02-21T08:04:42.195Z,10.20
2019-02-21T08:05:46.877Z,10.20
2019-02-21T08:06:51.351Z,10.20
2019-02-21T08:07:55.815Z,10.20
2019-02-21T08:09:00.369Z,10.20
2019-02-21T08:10:08.179Z,10.20
2019-02-21T08:11:12.741Z,10.30
2019-02-21T08:12:17.400Z,10.30
2019-02-21T08:13:22.099Z,10.30
2019-02-21T08:14:26.614Z,10.30
2019-02-21T08:15:31.097Z,10.30
2019-02-21T08:16:35.622Z,10.40
2019-02-21T08:17:40.115Z,10.40
2019-02-21T08:18:44.668Z,10.40
2019-02-21T08:19:49.182Z,10.40
2019-02-21T08:20:53.725Z,10.40
2019-02-21T08:22:00.183Z,10.50
2019-02-21T08:23:04.434Z,10.50
2019-02-21T08:24:08.947Z,10.50
2019-02-21T08:25:13.551Z,10.50
2019-02-21T08:26:19.997Z,10.60
2019-02-21T08:27:24.296Z,10.50
2019-02-21T08:28:28.777Z,10.60
2019-02-21T08:29:33.259Z,10.60
2019-02-21T08:30:37.761Z,10.60
2019-02-21T08:31:42.413Z,10.60
2019-02-21T08:33:06.924Z,10.70
2019-02-21T08:34:13.198Z,10.70
2019-02-21T08:35:17.892Z,10.80
2019-02-21T08:36:22.434Z,10.80
2019-02-21T08:37:26.923Z,10.80
2019-02-21T08:38:31.534Z,10.80
2019-02-21T08:39:35.984Z,10.80
2019-02-21T08:40:40.706Z,10.80
2019-02-21T08:41:45.187Z,10.80
2019-02-21T08:42:49.732Z,10.90
2019-02-21T08:43:57.508Z,10.90
2019-02-21T08:45:02.157Z,10.90
2019-02-21T08:46:06.777Z,10.90
2019-02-21T08:47:11.289Z,11.00
2019-02-21T08:48:15.763Z,11.00
2019-02-21T08:49:20.404Z,11.00
2019-02-21T08:50:24.882Z,11.10
2019-02-21T08:51:29.481Z,11.10
2019-02-21T08:52:34.023Z,11.10
2019-02-21T08:53:38.501Z,11.20
2019-02-21T08:54:43.002Z,11.20
2019-02-21T08:55:47.502Z,11.20
2019-02-21T08:56:52.010Z,11.30
2019-02-21T08:57:56.502Z,11.30
2019-02-21T08:59:01.236Z,11.30
2019-02-21T09:00:10.893Z,11.40
2019-02-21T09:01:15.433Z,11.40
2019-02-21T09:02:19.918Z,11.50
2019-02-21T09:03:24.589Z,11.50
2019-02-21T09:04:29.158Z,11.60
2019-02-21T09:05:33.708Z,11.60
2019-02-21T09:06:38.207Z,11.70
2019-02-21T09:07:43.105Z,11.80
2019-02-21T09:08:47.938Z,11.80
2019-02-21T09:09:52.639Z,11.90
2019-02-21T09:10:57.115Z,11.90
2019-02-21T09:12:01.699Z,12.00
2019-02-21T09:13:06.231Z,12.00
2019-02-21T09:14:10.743Z,12.10
2019-02-21T09:15:16.758Z,12.20
2019-02-21T09:16:21.220Z,12.20
2019-02-21T09:17:25.677Z,12.20
2019-02-21T09:18:30.191Z,12.30
2019-02-21T09:19:36.726Z,12.30
2019-02-21T09:20:40.818Z,12.30
2019-02-21T09:21:45.288Z,12.40
2019-02-21T09:22:49.803Z,12.40
2019-02-21T09:23:56.545Z,12.50
2019-02-21T09:25:02.651Z,12.50
2019-02-21T09:26:06.723Z,12.50
2019-02-21T09:27:11.183Z,12.60
2019-02-21T09:28:15.977Z,12.60
2019-02-21T09:29:20.473Z,12.70
2019-02-21T09:30:25.119Z,12.70
2019-02-21T09:31:29.621Z,12.70
2019-02-21T09:32:34.099Z,12.80
2019-02-21T09:33:38.643Z,12.80
2019-02-21T09:34:43.114Z,12.90
2019-02-21T09:35:47.629Z,12.90
2019-02-21T09:36:52.111Z,13.00
2019-02-21T09:37:56.635Z,13.00
2019-02-21T09:39:01.189Z,13.10
2019-02-21T09:40:13.836Z,13.20
2019-02-21T09:41:18.389Z,13.20
2019-02-21T09:42:23.222Z,13.30
2019-02-21T09:43:27.707Z,13.40
2019-02-21T09:44:32.175Z,13.50
2019-02-21T09:45:36.654Z,13.60
2019-02-21T09:46:41.125Z,13.80
2019-02-21T09:47:45.646Z,13.90
2019-02-21T09:48:50.193Z,14.10
2019-02-21T09:49:56.433Z,14.30
2019-02-21T09:51:00.913Z,14.50
2019-02-21T09:52:05.398Z,14.80
2019-02-21T09:53:09.906Z,15.10
2019-02-21T09:54:14.362Z,15.30
2019-02-21T09:55:18.890Z,15.60
2019-02-21T09:56:30.462Z,15.90
2019-02-21T09:57:29.568Z,16.10
2019-02-21T09:58:34.091Z,16.40
2019-02-21T09:59:38.589Z,16.70
2019-02-21T10:00:43.182Z,17.00
2019-02-21T10:01:47.721Z,17.30
2019-02-21T10:02:55.624Z,17.50
2019-02-21T10:03:58.405Z,17.80
2019-02-21T10:05:05.309Z,18.10
2019-02-21T10:06:09.208Z,18.30
2019-02-21T10:07:13.713Z,18.50
2019-02-21T10:08:18.328Z,18.80
2019-02-21T10:09:22.790Z,19.00
2019-02-21T10:10:27.348Z,19.20
2019-02-21T10:11:31.934Z,19.40
2019-02-21T10:12:36.417Z,19.70
2019-02-21T10:13:40.891Z,19.80
2019-02-21T10:14:45.367Z,20.00
2019-02-21T10:15:50.366Z,20.20
2019-02-21T10:16:54.883Z,20.30
2019-02-21T10:17:59.370Z,20.40
2019-02-21T10:19:03.839Z,20.40
2019-02-21T10:20:10.867Z,20.40
2019-02-21T10:21:15.426Z,20.40
2019-02-21T10:22:19.923Z,20.40
2019-02-21T10:23:24.487Z,20.40
2019-02-21T10:24:28.941Z,20.50
2019-02-21T10:25:33.581Z,20.50
2019-02-21T10:26:38.089Z,20.60
2019-02-21T10:27:42.576Z,20.70
2019-02-21T10:28:47.076Z,20.90
2019-02-21T10:29:51.556Z,21.00
2019-02-21T10:30:56.036Z,21.10
2019-02-21T10:32:00.561Z,21.30
2019-02-21T10:33:05.103Z,21.40
2019-02-21T10:34:09.599Z,21.50
2019-02-21T10:35:14.066Z,21.60
2019-02-21T10:36:18.868Z,21.70
2019-02-21T10:37:23.388Z,21.80
2019-02-21T10:38:27.928Z,21.80
2019-02-21T10:39:32.390Z,21.80
2019-02-21T10:40:36.846Z,21.80
2019-02-21T10:41:41.318Z,21.80
2019-02-21T10:42:45.927Z,21.80
2019-02-21T10:43:50.441Z,21.70
2019-02-21T10:44:54.955Z,21.70
2019-02-21T10:45:59.432Z,21.70
2019-02-21T10:47:04.044Z,21.70
2019-02-21T10:48:08.574Z,21.60
2019-02-21T10:49:13.049Z,21.60
2019-02-21T10:50:21.754Z,21.50
2019-02-21T10:51:26.269Z,21.50
2019-02-21T10:52:30.801Z,21.40
2019-02-21T10:53:35.254Z,21.30
2019-02-21T10:54:39.743Z,21.20
2019-02-21T10:55:44.262Z,21.20
2019-02-21T10:56:48.764Z,21.10
2019-02-21T10:57:53.388Z,21.00
2019-02-21T10:58:57.899Z,21.00
2019-02-21T11:00:02.392Z,20.90
2019-02-21T11:01:07.117Z,20.90
2019-02-21T11:02:11.638Z,20.80
2019-02-21T11:03:16.444Z,20.70
2019-02-21T11:04:20.955Z,20.70
2019-02-21T11:05:25.789Z,20.60
2019-02-21T11:06:30.538Z,20.60
2019-02-21T11:07:35.135Z,20.50
2019-02-21T11:08:39.601Z,20.50
2019-02-21T11:09:44.096Z,20.40
2019-02-21T11:10:49.115Z,20.40
2019-02-21T11:11:53.565Z,20.40
2019-02-21T11:12:58.122Z,20.30
2019-02-21T11:14:02.983Z,20.30
2019-02-21T11:15:13.190Z,20.20
2019-02-21T11:16:17.651Z,20.20
2019-02-21T11:17:22.122Z,20.10
2019-02-21T11:18:26.604Z,20.10
2019-02-21T11:19:31.169Z,20.00
2019-02-21T11:20:35.639Z,20.00
2019-02-21T11:21:40.103Z,19.90
2019-02-21T11:22:44.626Z,19.80
2019-02-21T11:23:49.113Z,19.80
2019-02-21T11:24:53.765Z,19.70
2019-02-21T11:25:58.234Z,19.60
2019-02-21T11:27:02.708Z,19.50
2019-02-21T11:28:07.185Z,19.40
2019-02-21T11:29:11.638Z,19.40
2019-02-21T11:30:20.139Z,19.30
2019-02-21T11:31:24.637Z,19.20
2019-02-21T11:32:29.243Z,19.10
2019-02-21T11:33:33.703Z,19.00
2019-02-21T11:34:38.417Z,19.00
2019-02-21T11:35:42.934Z,18.90
2019-02-21T11:36:47.475Z,18.80
2019-02-21T11:37:52.025Z,18.70
2019-02-21T11:38:56.511Z,18.70
2019-02-21T11:40:01.001Z,18.60
2019-02-21T11:41:05.648Z,18.60
2019-02-21T11:42:10.125Z,18.60
2019-02-21T11:43:14.706Z,18.60
2019-02-21T11:44:19.179Z,18.60
2019-02-21T11:45:23.652Z,18.60
2019-02-21T11:46:28.141Z,18.70
2019-02-21T11:47:32.595Z,18.80
2019-02-21T11:48:37.136Z,18.80
2019-02-21T11:49:41.611Z,18.90
2019-02-21T11:50:46.075Z,19.10
2019-02-21T11:51:50.650Z,19.20
2019-02-21T11:52:55.145Z,19.40
2019-02-21T11:53:59.613Z,19.50
2019-02-21T11:55:05.614Z,19.80
2019-02-21T11:56:10.559Z,20.00
2019-02-21T11:57:15.019Z,20.20
2019-02-21T11:58:19.508Z,20.40
2019-02-21T11:59:23.996Z,20.70
2019-02-21T12:00:30.225Z,20.90
2019-02-21T12:01:34.856Z,21.10
2019-02-21T12:02:39.341Z,21.30
2019-02-21T12:03:43.840Z,21.40
2019-02-21T12:04:48.362Z,21.60
2019-02-21T12:05:52.878Z,21.60
2019-02-21T12:06:57.366Z,21.70
2019-02-21T12:08:01.863Z,21.70
2019-02-21T12:09:08.203Z,21.70
2019-02-21T12:10:13.103Z,21.60
2019-02-21T12:11:17.664Z,21.60
2019-02-21T12:12:22.195Z,21.40
2019-02-21T12:13:26.722Z,21.40
2019-02-21T12:14:31.246Z,21.20
2019-02-21T12:15:35.872Z,21.10
2019-02-21T12:16:40.361Z,20.90
2019-02-21T12:17:44.965Z,20.70
2019-02-21T12:18:49.676Z,20.60
2019-02-21T12:19:54.231Z,20.40
2019-02-21T12:20:58.870Z,20.30
2019-02-21T12:22:03.415Z,20.10
2019-02-21T12:23:07.916Z,20.00
2019-02-21T12:24:12.393Z,19.90
2019-02-21T12:25:19.569Z,19.80
2019-02-21T12:26:24.029Z,19.70
2019-02-21T12:27:28.510Z,19.60
2019-02-21T12:28:33.017Z,19.50
2019-02-21T12:29:37.531Z,19.50
2019-02-21T12:30:42.025Z,19.40
2019-02-21T12:31:46.550Z,19.40
2019-02-21T12:32:51.045Z,19.30
2019-02-21T12:33:55.543Z,19.20
2019-02-21T12:35:00.169Z,19.20
2019-02-21T12:36:04.897Z,19.20
2019-02-21T12:37:09.367Z,19.10
2019-02-21T12:38:13.922Z,19.10
2019-02-21T12:39:18.395Z,19.00
2019-02-21T12:40:23.431Z,19.00
2019-02-21T12:41:27.941Z,19.00
2019-02-21T12:42:32.407Z,18.90
2019-02-21T12:43:36.895Z,18.90
2019-02-21T12:44:41.352Z,18.80
2019-02-21T12:45:45.820Z,18.80
2019-02-21T12:46:50.311Z,18.80
2019-02-21T12:47:54.771Z,18.70
2019-02-21T12:48:59.262Z,18.70
2019-02-21T12:50:04.665Z,18.70
2019-02-21T12:51:09.226Z,18.60
2019-02-21T12:52:13.718Z,18.60
2019-02-21T12:53:18.200Z,18.60
2019-02-21T12:54:24.667Z,18.60
2019-02-21T12:55:31.666Z,18.60
2019-02-21T12:56:35.026Z,18.60
2019-02-21T12:57:39.525Z,18.50
2019-02-21T12:58:45.285Z,18.50
2019-02-21T12:59:49.929Z,18.50
2019-02-21T13:00:54.409Z,18.40
2019-02-21T13:01:58.902Z,18.40
2019-02-21T13:03:03.365Z,18.40
2019-02-21T13:04:07.844Z,18.30
2019-02-21T13:05:12.362Z,18.30
2019-02-21T13:06:16.837Z,18.30
2019-02-21T13:07:21.315Z,18.30
2019-02-21T13:08:25.807Z,18.30
2019-02-21T13:09:30.289Z,18.40
2019-02-21T13:10:35.081Z,18.40
2019-02-21T13:11:39.655Z,18.40
2019-02-21T13:12:44.154Z,18.40
2019-02-21T13:13:48.714Z,18.40
2019-02-21T13:14:53.178Z,18.40
2019-02-21T13:15:57.650Z,18.40
2019-02-21T13:17:02.145Z,18.40
2019-02-21T13:18:15.284Z,18.40
2019-02-21T13:19:12.785Z,18.40
2019-02-21T13:20:17.574Z,18.40
2019-02-21T13:21:22.056Z,18.40
2019-02-21T13:22:26.534Z,18.40
2019-02-21T13:23:30.998Z,18.40
2019-02-21T13:24:35.479Z,18.40
2019-02-21T13:25:39.959Z,18.30
2019-02-21T13:26:44.437Z,18.30
2019-02-21T13:27:48.948Z,18.30
2019-02-21T13:28:53.432Z,18.30
2019-02-21T13:29:58.039Z,18.30
2019-02-21T13:31:02.512Z,18.30
2019-02-21T13:32:07.052Z,18.30
2019-02-21T13:33:11.519Z,18.30
2019-02-21T13:34:16.763Z,18.30
2019-02-21T13:35:21.327Z,18.30
2019-02-21T13:36:25.862Z,18.30
2019-02-21T13:37:30.404Z,18.30
2019-02-21T13:38:34.992Z,18.30
2019-02-21T13:39:39.488Z,18.20
2019-02-21T13:40:44.273Z,18.20
2019-02-21T13:41:49.199Z,18.20
2019-02-21T13:42:53.722Z,18.10
2019-02-21T13:43:58.237Z,18.10
2019-02-21T13:45:02.721Z,18.10
2019-02-21T13:46:07.210Z,18.00
2019-02-21T13:47:11.711Z,18.00
2019-02-21T13:48:16.190Z,18.00
2019-02-21T13:49:20.676Z,17.90
2019-02-21T13:50:25.308Z,17.90
2019-02-21T13:51:29.893Z,17.90
2019-02-21T13:52:34.431Z,17.90
2019-02-21T13:53:38.912Z,17.90
2019-02-21T13:54:43.478Z,17.80
2019-02-21T13:55:50.832Z,17.80
2019-02-21T13:56:54.206Z,17.80
2019-02-21T13:57:58.792Z,17.70
2019-02-21T13:59:03.278Z,17.70
2019-02-21T14:00:15.914Z,17.70
2019-02-21T14:01:20.427Z,17.70
2019-02-21T14:02:24.931Z,17.60
2019-02-21T14:03:29.396Z,17.60
2019-02-21T14:04:33.931Z,17.60
2019-02-21T14:05:38.423Z,17.60
2019-02-21T14:06:43.062Z,17.50
2019-02-21T14:07:47.699Z,17.50
2019-02-21T14:08:52.185Z,17.50
2019-02-21T14:09:56.659Z,17.50